Time;durP1;ratioP1;P1;durP2;ratioP2;P2;SDS_P1;SDS_P2;PMS_P1;PMS_P2;Temp;Humidity;BMP_temperature;BMP_pressure;BME280_temperature;BME280_humidity;BME280_pressure;Samples;Min_cycle;Max_cycle;Signal;HPM_P1;HPM_P2
2023/03/05 04:38:18;;;;;;;9.82;1.15;;;10.90;59.80;;;;;;4738673;30;20496;-74
2023/03/05 04:40:45;;;;;;;7.43;1.40;;;11.00;59.90;;;;;;4736267;30;20121;-81
2023/03/05 04:43:10;;;;;;;7.13;0.55;;;11.20;59.70;;;;;;4735918;30;20045;-73
2023/03/05 04:45:39;;;;;;;8.85;1.05;;;11.50;59.70;;;;;;4736191;30;20516;-74
2023/03/05 04:48:05;;;;;;;7.47;0.55;;;11.70;59.80;;;;;;4736376;30;20061;-73
2023/03/05 04:50:30;;;;;;;7.40;0.80;;;11.90;60.00;;;;;;4735943;30;20524;-74
2023/03/05 04:52:56;;;;;;;9.77;0.95;;;12.10;59.70;;;;;;4736018;30;20203;-73
2023/03/05 04:55:22;;;;;;;9.85;0.60;;;12.20;59.80;;;;;;4734522;30;20154;-73
2023/03/05 04:57:48;;;;;;;4.05;0.30;;;12.40;59.70;;;;;;4729618;30;20041;-73
2023/03/05 05:00:16;;;;;;;8.82;0.80;;;12.60;59.70;;;;;;4718568;30;20045;-72
2023/03/05 05:02:43;;;;;;;4.60;0.40;;;12.70;60.20;;;;;;4718669;30;20127;-73
2023/03/05 05:05:12;;;;;;;11.98;0.70;;;12.80;59.80;;;;;;4719911;30;20063;-72
2023/03/05 05:07:38;;;;;;;13.70;1.02;;;12.90;59.80;;;;;;4736894;30;20056;-75
2023/03/05 05:10:06;;;;;;;9.85;0.90;;;13.00;59.90;;;;;;4736379;30;20063;-74
2023/03/05 05:12:32;;;;;;;8.20;1.10;;;13.20;60.00;;;;;;4735696;30;20148;-71
2023/03/05 05:14:58;;;;;;;4.85;0.90;;;13.30;60.20;;;;;;4738136;30;20053;-75
2023/03/05 05:17:24;;;;;;;5.93;0.68;;;13.30;60.30;;;;;;4723212;30;20067;-74
2023/03/05 05:19:50;;;;;;;8.30;0.63;;;13.40;60.40;;;;;;4734134;30;20374;-72
2023/03/05 05:22:16;;;;;;;6.50;1.23;;;13.60;60.30;;;;;;4743914;30;20067;-71
2023/03/05 05:24:42;;;;;;;10.02;2.08;;;13.60;60.10;;;;;;4756008;30;20134;-76
2023/03/05 05:27:08;;;;;;;7.65;1.60;;;13.70;60.10;;;;;;4756579;30;20064;-75
2023/03/05 05:29:34;;;;;;;11.60;1.83;;;13.80;60.70;;;;;;4756636;30;20428;-74
2023/03/05 05:31:59;;;;;;;13.00;1.02;;;13.90;60.60;;;;;;4744994;30;20053;-75
2023/03/05 05:34:26;;;;;;;12.25;1.83;;;13.90;60.60;;;;;;4738188;30;20067;-75
2023/03/05 05:36:52;;;;;;;26.40;1.88;;;14.00;60.90;;;;;;4738938;30;20369;-74
2023/03/05 05:39:18;;;;;;;16.58;1.45;;;14.10;61.00;;;;;;4737880;30;20064;-74
2023/03/05 05:41:44;;;;;;;13.00;1.80;;;14.10;61.20;;;;;;4730203;30;20131;-74
2023/03/05 05:44:09;;;;;;;16.38;2.53;;;14.20;61.30;;;;;;4721802;30;20071;-73
2023/03/05 05:46:35;;;;;;;14.77;1.90;;;14.30;61.30;;;;;;4721277;30;20052;-73
2023/03/05 05:49:01;;;;;;;14.38;1.80;;;14.10;57.20;;;;;;4721464;30;20053;-72
2023/03/05 05:51:27;;;;;;;11.23;1.17;;;14.20;60.60;;;;;;4725376;30;20053;-71
2023/03/05 05:53:53;;;;;;;15.45;2.03;;;14.20;61.30;;;;;;4735450;30;20452;-76
2023/03/05 05:56:18;;;;;;;10.05;1.52;;;14.30;61.20;;;;;;4744581;30;20362;-73
2023/03/05 05:58:46;;;;;;;15.88;2.13;;;14.40;61.20;;;;;;4720798;30;20057;-76
2023/03/05 06:01:17;;;;;;;9.98;1.73;;;14.50;61.10;;;;;;4721282;30;20060;-73
2023/03/05 06:03:44;;;;;;;19.30;1.60;;;14.50;61.00;;;;;;4721026;30;20045;-72
2023/03/05 06:06:11;;;;;;;18.70;1.88;;;14.60;61.20;;;;;;4726932;30;20048;-73
2023/03/05 06:08:37;;;;;;;15.38;1.98;;;14.70;61.30;;;;;;4738097;30;20071;-73
2023/03/05 06:11:04;;;;;;;13.90;1.55;;;14.70;61.30;;;;;;4738271;30;20060;-72
2023/03/05 06:13:29;;;;;;;12.18;1.88;;;14.80;61.30;;;;;;4738168;30;20432;-73
2023/03/05 06:15:57;;;;;;;18.75;2.50;;;14.80;61.20;;;;;;4733743;30;20063;-73
2023/03/05 06:18:23;;;;;;;12.15;1.60;;;14.90;60.80;;;;;;4720644;30;20049;-75
2023/03/05 06:20:57;;;;;;;14.50;1.48;;;14.90;59.10;;;;;;4720674;30;20487;-73
2023/03/05 06:23:23;;;;;;;15.02;1.38;;;14.90;59.00;;;;;;4720599;30;20481;-72
2023/03/05 06:25:49;;;;;;;12.70;1.55;;;14.90;59.10;;;;;;4723139;30;20167;-73
2023/03/05 06:28:15;;;;;;;12.40;1.83;;;14.90;59.20;;;;;;4738434;30;20139;-72
2023/03/05 06:30:41;;;;;;;19.27;2.08;;;15.00;59.60;;;;;;4737072;30;20131;-76
2023/03/05 06:33:06;;;;;;;17.60;2.92;;;15.00;60.00;;;;;;4731937;30;20103;-78
2023/03/05 06:35:32;;;;;;;18.65;1.58;;;15.10;59.90;;;;;;4750362;30;20476;-76
2023/03/05 06:37:58;;;;;;;14.00;1.20;;;15.10;58.50;;;;;;4739159;30;20125;-80
2023/03/05 06:40:24;;;;;;;8.10;1.30;;;15.10;57.10;;;;;;4739912;30;20056;-73
2023/03/05 06:42:50;;;;;;;8.57;0.80;;;15.20;56.20;;;;;;4743245;30;20157;-72
2023/03/05 06:45:15;;;;;;;11.80;1.67;;;15.20;55.00;;;;;;4737063;30;20098;-72
2023/03/05 06:47:41;;;;;;;15.55;1.40;;;15.00;54.90;;;;;;4755533;30;20080;-72
2023/03/05 06:50:08;;;;;;;17.92;1.67;;;15.10;55.50;;;;;;4748443;30;20061;-73
2023/03/05 06:52:34;;;;;;;11.15;1.17;;;15.10;56.10;;;;;;4737954;30;20067;-73
2023/03/05 06:54:59;;;;;;;18.98;2.17;;;15.20;56.40;;;;;;4737993;30;20056;-74
2023/03/05 06:57:25;;;;;;;23.13;2.17;;;15.20;56.90;;;;;;4737724;30;20445;-75
2023/03/05 06:59:51;;;;;;;22.65;3.28;;;15.30;57.10;;;;;;4741434;30;20127;-72
2023/03/05 07:02:17;;;;;;;16.27;2.22;;;15.30;57.20;;;;;;4753417;30;20052;-73
2023/03/05 07:04:43;;;;;;;18.20;2.17;;;15.30;57.30;;;;;;4755218;30;20060;-72
2023/03/05 07:07:09;;;;;;;20.50;1.77;;;15.30;57.10;;;;;;4755049;30;20048;-73
2023/03/05 07:09:41;;;;;;;17.90;1.92;;;15.40;57.10;;;;;;4750862;30;20067;-72
2023/03/05 07:12:09;;;;;;;21.13;2.20;;;15.40;57.30;;;;;;4737370;30;20056;-71
2023/03/05 07:14:36;;;;;;;17.98;1.80;;;15.40;57.30;;;;;;4737341;30;20048;-73
2023/03/05 07:17:03;;;;;;;13.13;1.65;;;15.50;57.30;;;;;;4737322;30;20064;-72
2023/03/05 07:19:29;;;;;;;17.85;1.45;;;15.50;57.20;;;;;;4738229;30;20053;-70
2023/03/05 07:22:01;;;;;;;20.20;1.30;;;15.60;57.10;;;;;;4753345;30;20102;-77
2023/03/05 07:24:28;;;;;;;13.15;1.77;;;15.60;57.00;;;;;;4724695;30;20480;-73
2023/03/05 07:26:58;;;;;;;15.88;1.52;;;15.70;57.00;;;;;;4754677;30;20376;-72
2023/03/05 07:29:25;;;;;;;8.63;1.50;;;15.70;56.70;;;;;;4752581;30;20040;-72
2023/03/05 07:31:51;;;;;;;12.93;1.85;;;15.70;56.60;;;;;;4737088;30;20053;-76
2023/03/05 07:34:17;;;;;;;16.50;1.85;;;15.70;56.50;;;;;;4736939;30;20059;-75
2023/03/05 07:36:43;;;;;;;16.83;1.60;;;15.70;56.50;;;;;;4737142;30;20107;-78
2023/03/05 07:39:11;;;;;;;15.68;2.28;;;15.60;56.30;;;;;;4737980;30;20115;-78
2023/03/05 07:41:38;;;;;;;14.55;2.22;;;15.60;56.40;;;;;;4737528;30;20056;-78
2023/03/05 07:44:04;;;;;;;14.95;1.40;;;15.60;56.10;;;;;;4724600;30;20476;-77
2023/03/05 07:46:32;;;;;;;10.40;1.30;;;15.60;55.80;;;;;;4754436;30;20094;-79
2023/03/05 07:48:58;;;;;;;14.10;2.45;;;15.60;55.20;;;;;;4753966;30;20060;-77
2023/03/05 07:51:25;;;;;;;17.33;2.00;;;15.50;55.00;;;;;;4721538;30;20195;-80
2023/03/05 07:53:53;;;;;;;10.25;1.95;;;15.50;55.00;;;;;;4736443;30;20102;-75
2023/03/05 07:56:30;;;;;;;12.90;1.83;;;15.10;56.00;;;;;;4737180;30;20361;-76
2023/03/05 07:58:57;;;;;;;18.27;1.80;;;15.00;56.40;;;;;;4737721;30;20053;-76
2023/03/05 08:01:22;;;;;;;15.00;1.63;;;15.00;56.40;;;;;;4749018;30;20067;-73
2023/03/05 08:03:48;;;;;;;21.67;2.55;;;15.00;56.30;;;;;;4725584;30;20056;-78
2023/03/05 08:06:14;;;;;;;8.35;1.20;;;15.00;56.50;;;;;;4736666;30;20044;-77
2023/03/05 08:08:40;;;;;;;7.50;0.80;;;15.00;55.60;;;;;;4736712;30;20365;-78
2023/03/05 08:11:12;;;;;;;8.30;1.27;;;15.00;54.30;;;;;;4748512;30;20070;-78
2023/03/05 08:13:38;;;;;;;4.82;0.82;;;14.90;52.40;;;;;;4750095;30;20461;-78
2023/03/05 08:16:06;;;;;;;14.65;1.30;;;14.90;51.80;;;;;;4736131;30;20044;-77
2023/03/05 08:18:32;;;;;;;6.65;1.02;;;14.80;51.80;;;;;;4739105;30;20052;-76
2023/03/05 08:20:58;;;;;;;5.05;1.00;;;14.70;51.90;;;;;;4751816;30;20052;-77
2023/03/05 08:23:24;;;;;;;8.48;1.10;;;14.70;51.80;;;;;;4763427;30;20130;-77
2023/03/05 08:25:50;;;;;;;12.68;1.17;;;14.70;51.70;;;;;;4772076;30;20087;-77
2023/03/05 08:28:18;;;;;;;16.95;2.90;;;14.60;52.00;;;;;;4770737;30;20083;-76
2023/03/05 08:30:45;;;;;;;19.02;1.98;;;14.60;52.40;;;;;;4741445;30;20052;-74
2023/03/05 08:33:13;;;;;;;26.45;3.33;;;14.60;52.90;;;;;;4762660;30;20054;-73
2023/03/05 08:35:42;;;;;;;25.98;2.65;;;14.60;53.20;;;;;;4766653;30;20063;-71
2023/03/05 08:38:08;;;;;;;23.15;2.95;;;14.60;53.80;;;;;;4735573;30;20053;-72
2023/03/05 08:40:36;;;;;;;28.70;3.60;;;14.60;54.20;;;;;;4720728;30;20149;-75
2023/03/05 08:43:04;;;;;;;24.95;3.00;;;14.60;54.70;;;;;;4736602;30;20056;-74
2023/03/05 08:45:30;;;;;;;18.65;3.05;;;14.60;55.30;;;;;;4736052;30;20523;-74
2023/03/05 08:47:56;;;;;;;19.67;2.53;;;14.60;55.70;;;;;;4736664;30;20048;-73
2023/03/05 08:50:22;;;;;;;25.60;3.72;;;14.60;56.30;;;;;;4739741;30;20121;-73
2023/03/05 08:52:49;;;;;;;33.13;4.03;;;14.60;57.00;;;;;;4740214;30;20076;-75
2023/03/05 08:55:15;;;;;;;15.27;1.33;;;14.50;56.90;;;;;;4740221;30;20076;-74
2023/03/05 08:57:41;;;;;;;19.75;2.50;;;14.50;58.20;;;;;;4756429;30;20066;-77
2023/03/05 09:00:09;;;;;;;18.08;2.38;;;14.50;57.90;;;;;;4757160;30;20063;-75
2023/03/05 09:02:35;;;;;;;28.15;3.35;;;14.50;57.60;;;;;;4756513;30;20063;-79
2023/03/05 09:05:02;;;;;;;19.77;2.63;;;14.40;57.70;;;;;;4757161;30;20051;-76
2023/03/05 09:07:28;;;;;;;23.50;2.78;;;14.40;57.60;;;;;;4756499;30;20070;-74
2023/03/05 09:09:54;;;;;;;16.45;2.92;;;14.50;57.50;;;;;;4757198;30;20353;-75
2023/03/05 09:12:19;;;;;;;13.63;2.67;;;14.40;57.30;;;;;;4748981;30;20372;-75
2023/03/05 09:14:45;;;;;;;15.15;2.08;;;14.40;57.30;;;;;;4755596;30;20052;-76
2023/03/05 09:17:11;;;;;;;18.38;2.17;;;14.40;57.30;;;;;;4755877;30;20066;-76
2023/03/05 09:19:37;;;;;;;14.70;1.98;;;14.40;57.30;;;;;;4756934;30;20056;-75
2023/03/05 09:22:03;;;;;;;17.40;2.25;;;14.40;57.20;;;;;;4757088;30;20074;-76
2023/03/05 09:24:28;;;;;;;14.85;1.83;;;14.40;57.30;;;;;;4755078;30;20468;-76
2023/03/05 09:26:59;;;;;;;16.10;1.90;;;14.30;57.30;;;;;;4746818;30;20052;-74
2023/03/05 09:29:25;;;;;;;12.50;1.85;;;14.30;57.50;;;;;;4739423;30;20053;-74
2023/03/05 09:31:54;;;;;;;14.40;2.65;;;14.30;57.70;;;;;;4738976;30;20048;-75
2023/03/05 09:34:20;;;;;;;15.32;1.88;;;14.30;57.70;;;;;;4738974;30;20079;-75
2023/03/05 09:36:46;;;;;;;19.33;2.60;;;14.20;57.90;;;;;;4739475;30;20045;-72
2023/03/05 09:39:12;;;;;;;21.58;2.60;;;14.20;58.00;;;;;;4738586;30;20067;-80
2023/03/05 09:42:15;;;;;;;16.10;2.47;;;14.20;58.30;;;;;;4738420;30;20130;-75
2023/03/05 09:45:02;;;;;;;23.73;2.60;;;14.20;58.90;;;;;;4745848;30;20040;-76
2023/03/05 09:47:36;;;;;;;21.23;2.20;;;14.30;59.20;;;;;;4756445;30;20126;-77
2023/03/05 09:50:20;;;;;;;21.17;2.83;;;14.40;59.60;;;;;;4756082;30;20366;-79
2023/03/05 09:52:50;;;;;;;;;;;14.50;59.70;;;;;;4755680;30;20121;-76
2023/03/05 09:55:33;;;;;;;19.38;2.08;;;14.70;60.20;;;;;;4755415;30;20020;-77
2023/03/05 09:58:26;;;;;;;20.75;2.85;;;14.80;60.00;;;;;;4755494;30;20052;-76
2023/03/05 10:00:59;;;;;;;15.77;2.05;;;14.90;59.30;;;;;;4739398;30;20056;-76
2023/03/05 10:03:30;;;;;;;11.63;2.03;;;15.00;59.00;;;;;;4740462;30;20064;-76
2023/03/05 10:06:15;;;;;;;13.60;2.20;;;15.00;58.80;;;;;;4756027;30;20056;-77
2023/03/05 10:08:44;;;;;;;15.73;1.92;;;15.20;58.80;;;;;;4756106;30;20055;-76
2023/03/05 10:11:29;;;;;;;20.67;1.83;;;15.20;58.60;;;;;;4756405;30;20200;-77
2023/03/05 10:13:55;;;;;;;10.77;1.70;;;15.20;58.40;;;;;;4740230;30;20048;-76
2023/03/05 10:16:38;;;;;;;11.18;1.20;;;15.30;58.40;;;;;;4756063;30;20052;-76
2023/03/05 10:19:22;;;;;;;11.70;1.55;;;15.30;58.40;;;;;;4756145;30;20407;-76
2023/03/05 10:22:10;;;;;;;8.55;1.33;;;15.30;58.30;;;;;;4755085;30;20067;-77
2023/03/05 10:24:35;;;;;;;13.25;2.45;;;15.30;58.10;;;;;;4738148;30;20423;-78
2023/03/05 10:27:10;;;;;;;10.02;1.00;;;15.40;57.80;;;;;;4737738;30;20098;-78
2023/03/05 10:30:03;;;;;;;7.30;1.10;;;15.50;57.60;;;;;;4739019;30;20053;-79
2023/03/05 10:32:57;;;;;;;10.45;1.33;;;15.60;57.40;;;;;;4737942;30;20063;-77
2023/03/05 10:35:49;;;;;;;9.65;1.30;;;15.60;57.40;;;;;;4738152;30;20449;-77
2023/03/05 10:38:26;;;;;;;11.27;1.30;;;15.60;57.30;;;;;;4736849;30;20148;-78
2023/03/05 10:40:54;;;;;;;5.70;1.30;;;15.70;57.40;;;;;;4736697;30;20065;-76
2023/03/05 10:43:37;;;;;;;6.00;1.60;;;15.70;57.30;;;;;;4738473;30;20140;-76
2023/03/05 10:46:04;;;;;;;4.93;0.95;;;15.80;57.30;;;;;;4707812;30;20067;-77
2023/03/05 10:48:32;;;;;;;10.07;0.98;;;15.80;57.10;;;;;;4737436;30;20084;-77
2023/03/05 10:51:19;;;;;;;6.15;0.70;;;15.90;57.10;;;;;;4740117;30;20131;-76
2023/03/05 10:54:08;;;;;;;7.55;0.93;;;15.90;56.90;;;;;;4740269;30;20053;-77
2023/03/05 10:56:34;;;;;;;7.93;1.20;;;15.90;56.90;;;;;;4737320;30;20512;-78
2023/03/05 10:59:00;;;;;;;7.65;1.50;;;16.00;57.00;;;;;;4736634;30;20091;-78
2023/03/05 11:01:28;;;;;;;4.88;1.38;;;16.00;56.90;;;;;;4737221;30;20465;-78
2023/03/05 11:04:05;;;;;;;3.60;0.57;;;16.10;56.80;;;;;;4737367;30;20212;-79
2023/03/05 11:06:33;;;;;;;11.88;1.25;;;16.10;57.40;;;;;;4737338;30;20052;-75
2023/03/05 11:09:31;;;;;;;4.85;0.70;;;16.10;57.70;;;;;;4736181;30;20049;-77
2023/03/05 11:12:17;;;;;;;8.05;0.95;;;16.10;56.80;;;;;;4737826;30;20052;-78
2023/03/05 11:15:07;;;;;;;17.63;2.25;;;16.10;56.70;;;;;;4754956;30;20059;-77
2023/03/05 11:17:43;;;;;;;12.05;1.33;;;16.10;57.10;;;;;;4722562;30;20055;-78
2023/03/05 11:20:30;;;;;;;15.00;1.77;;;16.10;57.40;;;;;;4754571;30;20048;-77
2023/03/05 11:23:25;;;;;;;11.45;1.60;;;16.00;57.50;;;;;;4751322;30;20400;-77
2023/03/05 11:26:04;;;;;;;12.30;1.20;;;16.00;57.30;;;;;;4714909;30;20071;-77
2023/03/05 11:28:36;;;;;;;9.20;1.60;;;16.00;57.20;;;;;;4736785;30;20378;-77
2023/03/05 11:31:17;;;;;;;9.88;1.30;;;15.90;57.10;;;;;;4737113;30;20049;-77
2023/03/05 11:34:19;;;;;;;12.68;1.63;;;15.90;57.10;;;;;;4736463;30;20151;-77
2023/03/05 11:36:54;;;;;;;7.38;1.27;;;15.80;56.90;;;;;;4722135;30;20346;-77
2023/03/05 11:39:23;;;;;;;9.50;0.90;;;15.80;57.00;;;;;;4735867;30;20067;-77
2023/03/05 11:41:59;;;;;;;8.43;1.20;;;15.80;57.00;;;;;;4736863;30;20056;-77
2023/03/05 11:44:49;;;;;;;10.00;1.17;;;15.80;57.00;;;;;;4738063;30;20428;-79
2023/03/05 11:47:38;;;;;;;7.15;1.42;;;15.80;56.90;;;;;;4736499;30;20454;-77
2023/03/05 11:50:14;;;;;;;11.35;1.33;;;15.70;56.90;;;;;;4736644;30;20496;-77
2023/03/05 11:52:52;;;;;;;8.75;1.27;;;15.60;56.90;;;;;;4723879;30;20468;-76
2023/03/05 11:55:35;;;;;;;8.85;1.45;;;15.60;56.80;;;;;;4739882;30;20053;-75
2023/03/05 11:58:31;;;;;;;10.70;1.27;;;15.60;56.90;;;;;;4751212;30;20060;-74
2023/03/05 12:01:00;;;;;;;14.25;2.65;;;15.50;57.20;;;;;;4748548;30;20062;-75
2023/03/05 12:03:31;;;;;;;8.05;1.10;;;15.50;57.40;;;;;;4749721;30;20371;-74
2023/03/05 12:06:20;;;;;;;10.57;1.50;;;15.40;57.40;;;;;;4749091;30;20144;-76
2023/03/05 12:08:50;;;;;;;10.05;1.17;;;15.40;57.60;;;;;;4736778;30;20071;-75
2023/03/05 12:11:38;;;;;;;14.88;1.50;;;15.40;57.70;;;;;;4736532;30;20056;-71
2023/03/05 12:14:08;;;;;;;12.40;1.77;;;15.30;57.90;;;;;;4720819;30;20069;-75
2023/03/05 12:16:38;;;;;;;14.75;1.10;;;15.30;58.20;;;;;;4737958;30;20144;-73
2023/03/05 12:19:42;;;;;;;14.65;1.50;;;15.30;58.50;;;;;;4751345;30;20419;-74
2023/03/05 12:22:32;;;;;;;9.25;1.60;;;15.20;58.60;;;;;;4681395;30;20057;-75
2023/03/05 12:25:30;;;;;;;10.25;1.13;;;15.20;59.30;;;;;;4737737;30;20064;-74
2023/03/05 12:27:56;;;;;;;9.15;0.95;;;15.20;59.40;;;;;;4740020;30;20048;-73
2023/03/05 12:30:44;;;;;;;7.65;0.85;;;15.20;59.50;;;;;;4744684;30;20056;-74
2023/03/05 12:33:40;;;;;;;9.02;1.33;;;15.10;59.60;;;;;;4738078;30;20457;-75
2023/03/05 12:36:21;;;;;;;9.65;1.05;;;15.10;59.90;;;;;;4740014;30;20061;-74
2023/03/05 12:38:51;;;;;;;11.13;1.20;;;15.10;60.00;;;;;;4739227;30;20080;-72
2023/03/05 12:41:23;;;;;;;5.97;1.35;;;15.00;60.30;;;;;;4745895;30;20281;-70
2023/03/05 12:44:04;;;;;;;7.55;0.90;;;15.00;60.70;;;;;;4743722;30;20063;-72
2023/03/05 12:46:34;;;;;;;9.40;1.02;;;15.00;60.30;;;;;;4770531;30;20410;-71
2023/03/05 12:49:26;;;;;;;4.95;0.65;;;15.00;59.60;;;;;;4774698;30;20059;-71
2023/03/05 12:51:55;;;;;;;9.55;1.00;;;15.00;58.30;;;;;;4758285;30;20126;-76
2023/03/05 12:54:34;;;;;;;7.63;0.70;;;15.10;57.60;;;;;;4746286;30;20048;-75
2023/03/05 12:57:04;;;;;;;6.18;1.30;;;15.10;57.40;;;;;;4756480;30;20058;-74
2023/03/05 13:00:09;;;;;;;9.68;1.60;;;15.20;57.30;;;;;;4747669;30;20044;-75
2023/03/05 13:02:43;;;;;;;5.97;1.02;;;15.20;57.30;;;;;;4732540;30;20110;-78
2023/03/05 13:05:24;;;;;;;14.35;1.77;;;15.30;57.60;;;;;;4739575;30;20088;-75
2023/03/05 13:07:50;;;;;;;8.02;1.60;;;15.40;57.90;;;;;;4741628;30;20115;-75
2023/03/05 13:10:26;;;;;;;10.80;1.02;;;15.40;57.90;;;;;;4756595;30;20055;-75
2023/03/05 13:12:54;;;;;;;11.25;1.27;;;15.40;57.90;;;;;;4750209;30;20381;-74
2023/03/05 13:15:23;;;;;;;8.50;0.90;;;15.40;58.10;;;;;;4739207;30;20073;-76
2023/03/05 13:17:57;;;;;;;10.85;1.45;;;15.50;58.30;;;;;;4739169;30;20092;-75
2023/03/05 13:20:37;;;;;;;10.98;1.02;;;15.50;58.50;;;;;;4739095;30;20053;-74
2023/03/05 13:23:18;;;;;;;12.23;1.20;;;15.60;58.60;;;;;;4749054;30;20135;-74
2023/03/05 13:25:51;;;;;;;10.50;1.75;;;15.60;58.60;;;;;;4738803;30;20063;-75
2023/03/05 13:28:16;;;;;;;10.88;1.35;;;15.60;57.70;;;;;;4746095;30;20475;-75
2023/03/05 13:30:51;;;;;;;9.57;0.82;;;15.50;57.00;;;;;;4739160;30;20048;-76
2023/03/05 13:33:22;;;;;;;8.38;1.00;;;15.50;56.90;;;;;;4738647;30;20491;-76
2023/03/05 13:35:48;;;;;;;7.90;0.70;;;15.50;56.90;;;;;;4737649;30;20057;-75
2023/03/05 13:38:26;;;;;;;4.60;0.95;;;15.50;57.00;;;;;;4738436;30;20134;-76
2023/03/05 13:41:05;;;;;;;6.88;1.00;;;15.50;57.00;;;;;;4739030;30;20135;-76
2023/03/05 13:43:30;;;;;;;3.78;0.90;;;15.50;57.00;;;;;;4724095;30;20048;-75
2023/03/05 13:45:57;;;;;;;5.38;1.02;;;15.50;57.10;;;;;;4739280;30;20138;-76
2023/03/05 13:48:25;;;;;;;6.93;1.38;;;15.50;57.10;;;;;;4757694;30;20468;-75
2023/03/05 13:50:57;;;;;;;8.90;0.82;;;15.50;57.20;;;;;;4773069;30;20130;-75
2023/03/05 13:53:26;;;;;;;3.85;0.50;;;15.60;57.30;;;;;;4774217;30;20060;-75
2023/03/05 13:55:55;;;;;;;7.32;0.82;;;15.60;57.90;;;;;;4774561;30;20047;-75
2023/03/05 13:58:53;;;;;;;5.78;0.77;;;15.70;57.30;;;;;;4773591;30;20047;-74
2023/03/05 14:01:22;;;;;;;4.38;1.00;;;15.80;57.10;;;;;;4773002;30;20135;-74
2023/03/05 14:03:50;;;;;;;2.47;0.43;;;15.90;57.00;;;;;;4766635;30;20045;-76
2023/03/05 14:06:19;;;;;;;4.18;0.50;;;16.00;57.00;;;;;;4744702;30;20058;-75
2023/03/05 14:08:56;;;;;;;5.45;0.60;;;16.00;57.00;;;;;;4755226;30;20067;-76
2023/03/05 14:11:22;;;;;;;3.42;0.65;;;16.10;57.50;;;;;;4756077;30;20074;-75
2023/03/05 14:13:56;;;;;;;4.00;0.73;;;16.10;56.80;;;;;;4768178;30;20135;-74
2023/03/05 14:16:32;;;;;;;3.47;0.85;;;16.20;56.80;;;;;;4774008;30;20126;-72
2023/03/05 14:19:01;;;;;;;6.97;0.98;;;16.20;56.80;;;;;;4770217;30;20434;-72
2023/03/05 14:21:47;;;;;;;5.82;0.77;;;16.20;56.70;;;;;;4755587;30;20058;-71
2023/03/05 14:24:20;;;;;;;4.07;0.60;;;16.20;56.60;;;;;;4754296;30;20131;-71
2023/03/05 14:26:52;;;;;;;3.28;0.47;;;16.20;56.70;;;;;;4769909;30;20109;-77
2023/03/05 14:29:20;;;;;;;4.47;0.40;;;16.20;56.80;;;;;;4760847;30;20461;-76
2023/03/05 14:31:52;;;;;;;3.05;0.30;;;16.20;57.00;;;;;;4741222;30;20119;-78
2023/03/05 14:34:34;;;;;;;3.38;0.50;;;16.20;57.20;;;;;;4753541;30;20052;-73
2023/03/05 14:37:06;;;;;;;4.25;0.40;;;16.20;57.40;;;;;;4757983;29;20052;-74
2023/03/05 14:39:48;;;;;;;3.50;0.30;;;16.20;57.30;;;;;;4773382;30;20417;-73
2023/03/05 14:42:20;;;;;;;8.68;0.98;;;16.30;57.40;;;;;;4773110;30;20130;-73
2023/03/05 14:44:45;;;;;;;6.68;0.50;;;16.30;57.50;;;;;;4748082;30;20158;-74
2023/03/05 14:47:11;;;;;;;7.78;0.80;;;16.30;58.10;;;;;;4737446;30;20460;-74
2023/03/05 14:49:37;;;;;;;6.53;0.77;;;16.30;57.60;;;;;;4740438;30;20044;-75
2023/03/05 14:52:05;;;;;;;3.25;0.30;;;16.40;57.70;;;;;;4751320;30;20064;-74
2023/03/05 14:54:35;;;;;;;6.05;0.73;;;16.40;57.60;;;;;;4756811;30;20059;-75
2023/03/05 14:57:00;;;;;;;10.73;0.60;;;16.40;57.60;;;;;;4739450;30;20052;-76
2023/03/05 14:59:26;;;;;;;7.60;0.88;;;16.40;57.60;;;;;;4755045;30;20209;-76
2023/03/05 15:01:53;;;;;;;10.35;0.88;;;16.40;57.90;;;;;;4755259;30;20091;-76
2023/03/05 15:04:18;;;;;;;10.00;1.27;;;16.40;58.00;;;;;;4746801;30;20060;-75
2023/03/05 15:06:49;;;;;;;7.68;1.08;;;16.40;58.10;;;;;;4737519;30;20509;-76
2023/03/05 15:09:16;;;;;;;8.88;0.90;;;16.40;58.10;;;;;;4747598;30;20067;-76
2023/03/05 15:11:47;;;;;;;14.10;1.27;;;16.40;58.20;;;;;;4746047;30;20049;-74
2023/03/05 15:14:12;;;;;;;11.05;1.13;;;16.40;58.40;;;;;;4756881;30;20465;-70
2023/03/05 15:16:44;;;;;;;14.32;1.10;;;16.40;58.40;;;;;;4755050;30;20055;-73
2023/03/05 15:19:12;;;;;;;12.48;1.85;;;16.30;58.10;;;;;;4754548;30;20080;-75
2023/03/05 15:21:37;;;;;;;8.57;1.23;;;16.30;58.50;;;;;;4754777;30;20059;-74
2023/03/05 15:24:03;;;;;;;14.63;1.55;;;16.30;58.10;;;;;;4748022;30;20127;-75
2023/03/05 15:26:29;;;;;;;10.80;1.20;;;16.20;57.80;;;;;;4762981;30;20055;-74
2023/03/05 15:28:55;;;;;;;9.15;1.25;;;16.20;58.00;;;;;;4748054;30;20072;-72
2023/03/05 15:31:20;;;;;;;5.88;0.90;;;16.20;58.00;;;;;;4751413;30;20071;-75
2023/03/05 15:33:46;;;;;;;8.68;0.82;;;16.20;58.00;;;;;;4752997;30;20317;-72
2023/03/05 15:36:12;;;;;;;9.23;0.77;;;16.20;58.00;;;;;;4754467;30;20052;-75
2023/03/05 15:38:40;;;;;;;7.60;0.70;;;16.20;58.00;;;;;;4754112;30;20064;-74
2023/03/05 15:41:06;;;;;;;9.55;1.15;;;16.30;58.00;;;;;;4755130;30;20353;-73
2023/03/05 15:43:32;;;;;;;4.63;0.70;;;16.30;57.90;;;;;;4751765;30;20057;-73
2023/03/05 15:45:58;;;;;;;8.13;1.00;;;16.30;58.00;;;;;;4738515;30;20063;-75
2023/03/05 15:48:23;;;;;;;11.50;1.10;;;16.30;58.00;;;;;;4755030;30;20135;-75
2023/03/05 15:50:49;;;;;;;7.20;0.73;;;16.30;58.00;;;;;;4754740;30;20368;-72
2023/03/05 15:53:15;;;;;;;5.20;1.15;;;16.40;58.10;;;;;;4754316;30;20125;-74
2023/03/05 15:55:42;;;;;;;10.05;1.33;;;16.40;58.30;;;;;;4739458;30;20390;-73
2023/03/05 15:58:12;;;;;;;7.80;1.63;;;16.40;58.60;;;;;;4765838;30;20391;-72
2023/03/05 16:00:39;;;;;;;5.00;1.00;;;16.40;58.90;;;;;;4772024;30;20054;-72
2023/03/05 16:03:05;;;;;;;6.45;1.70;;;16.40;59.30;;;;;;4772023;30;20091;-72
2023/03/05 16:05:33;;;;;;;9.40;1.65;;;16.40;59.10;;;;;;4749449;30;20080;-72
2023/03/05 16:07:59;;;;;;;6.20;1.63;;;16.40;59.30;;;;;;4736336;30;20067;-73
2023/03/05 16:10:27;;;;;;;8.88;2.20;;;16.40;59.70;;;;;;4736900;30;20053;-71
2023/03/05 16:13:15;;;;;;;14.95;2.55;;;16.40;61.10;;;;;;4746946;30;20064;-72
2023/03/05 16:15:42;;;;;;;12.65;3.40;;;16.50;62.40;;;;;;4753976;30;20109;-72
2023/03/05 16:18:14;;;;;;;9.88;2.63;;;16.50;63.40;;;;;;4754068;30;20058;-74
2023/03/05 16:20:40;;;;;;;14.68;2.10;;;16.40;63.20;;;;;;4754118;30;20052;-72
2023/03/05 16:23:06;;;;;;;10.35;2.20;;;16.40;63.50;;;;;;4744741;30;20122;-71
2023/03/05 16:25:32;;;;;;;14.02;2.33;;;16.40;63.50;;;;;;4754083;30;20084;-71
2023/03/05 16:27:58;;;;;;;10.13;2.30;;;16.40;63.60;;;;;;4753811;30;20056;-71
2023/03/05 16:30:24;;;;;;;14.63;2.25;;;16.40;63.40;;;;;;4757367;30;20136;-72
2023/03/05 16:32:49;;;;;;;17.95;2.33;;;16.40;63.90;;;;;;4767568;30;20113;-71
2023/03/05 16:35:15;;;;;;;12.13;1.80;;;16.30;64.30;;;;;;4736508;30;20057;-71
2023/03/05 16:37:41;;;;;;;11.52;2.25;;;16.30;63.70;;;;;;4737686;30;20063;-74
2023/03/05 16:40:09;;;;;;;10.73;1.55;;;16.30;63.00;;;;;;4760962;30;20075;-72
2023/03/05 16:42:35;;;;;;;15.00;2.10;;;16.30;62.70;;;;;;4743940;30;20056;-73
2023/03/05 16:45:02;;;;;;;10.65;2.40;;;16.20;62.60;;;;;;4744452;30;20047;-72
2023/03/05 16:47:28;;;;;;;19.85;2.30;;;16.20;63.00;;;;;;4750478;30;20052;-72
2023/03/05 16:49:53;;;;;;;19.80;2.40;;;16.20;63.40;;;;;;4735642;30;20060;-72
2023/03/05 16:52:19;;;;;;;14.85;1.85;;;16.10;63.70;;;;;;4736546;30;20135;-71
2023/03/05 16:54:48;;;;;;;15.75;2.30;;;16.10;63.80;;;;;;4736520;30;20202;-71
2023/03/05 16:57:14;;;;;;;19.95;2.08;;;16.10;64.00;;;;;;4736514;30;20461;-72
2023/03/05 16:59:42;;;;;;;20.08;2.00;;;16.00;64.20;;;;;;4736513;30;20055;-72
2023/03/05 17:02:08;;;;;;;14.20;2.35;;;16.00;64.40;;;;;;4736260;30;20165;-72
2023/03/05 17:04:35;;;;;;;17.33;2.42;;;16.00;64.50;;;;;;4736522;30;20159;-72
2023/03/05 17:07:04;;;;;;;20.65;2.05;;;15.90;64.60;;;;;;4736391;30;20170;-72
2023/03/05 17:09:30;;;;;;;16.05;1.80;;;15.90;64.40;;;;;;4754443;30;20066;-72
2023/03/05 17:11:55;;;;;;;8.70;1.70;;;15.90;64.50;;;;;;4759180;30;20138;-72
2023/03/05 17:14:21;;;;;;;11.30;1.95;;;15.90;64.50;;;;;;4773457;30;20048;-72
2023/03/05 17:16:47;;;;;;;23.80;2.67;;;15.90;64.60;;;;;;4774794;30;20055;-71
2023/03/05 17:19:13;;;;;;;15.18;2.17;;;15.90;64.90;;;;;;4758848;30;20472;-74
2023/03/05 17:21:39;;;;;;;17.58;2.55;;;15.80;64.80;;;;;;4756938;30;20428;-71
2023/03/05 17:24:05;;;;;;;24.38;2.95;;;15.80;64.70;;;;;;4757046;30;20048;-67
2023/03/05 17:26:31;;;;;;;38.00;3.65;;;15.80;64.90;;;;;;4768273;30;20079;-72
2023/03/05 17:28:58;;;;;;;23.15;2.90;;;15.80;64.80;;;;;;4765769;30;20063;-73
2023/03/05 17:31:24;;;;;;;30.35;3.88;;;15.80;64.80;;;;;;4774388;30;20055;-73
2023/03/05 17:33:50;;;;;;;24.15;2.50;;;15.80;64.70;;;;;;4774294;30;20051;-79
2023/03/05 17:36:18;;;;;;;20.13;3.38;;;15.80;64.90;;;;;;4764890;30;20051;-73